Terminal Aerodrome Forecast
Issued by NWS

Home | Current Version | Previous Version | Text Only | Print | Product List | Glossary On
Versions: 1 2 3 4 5 6 7 8 9 10 11 12 13 14
000
FTUS45 KVEF 251120
TAFBIH
TAF
KBIH 251120Z 2512/2612 32005KT P6SM OVC070
     FM251500 02008KT P6SM BKN100
     FM252300 01010KT P6SM VCSH BKN060 BKN080
      TEMPO 2523/2603 35025G35KT
     FM260500 34009KT P6SM FEW060 BKN100=

USA.gov is the U.S. government's official web portal to all federal, state and local government web resources and services.